createdAt,value
2018-12-01T00:01:31.129Z,10.10
2018-12-01T00:03:58.794Z,9.27
2018-12-01T00:06:26.162Z,9.60
2018-12-01T00:08:53.552Z,9.30
2018-12-01T00:11:21.082Z,9.40
2018-12-01T00:13:48.530Z,9.30
2018-12-01T00:16:16.061Z,8.90
2018-12-01T00:18:43.626Z,9.13
2018-12-01T00:21:11.122Z,9.27
2018-12-01T00:23:38.570Z,9.47
2018-12-01T00:26:05.933Z,8.60
2018-12-01T00:28:33.323Z,8.43
2018-12-01T00:31:00.709Z,10.53
2018-12-01T00:33:28.109Z,9.23
2018-12-01T00:35:55.456Z,8.97
2018-12-01T00:38:22.899Z,9.50
2018-12-01T00:40:50.248Z,9.03
2018-12-01T00:43:17.904Z,7.90
2018-12-01T00:45:45.524Z,8.43
2018-12-01T00:48:13.183Z,8.70
2018-12-01T00:50:40.563Z,9.13
2018-12-01T00:53:07.954Z,8.50
2018-12-01T00:55:35.306Z,8.30
2018-12-01T00:58:02.709Z,7.97
2018-12-01T01:00:30.087Z,9.30
2018-12-01T01:02:59.281Z,7.50
2018-12-01T01:05:29.102Z,8.30
2018-12-01T01:07:56.841Z,8.10
2018-12-01T01:10:24.685Z,7.70
2018-12-01T01:12:52.579Z,8.10
2018-12-01T01:15:20.048Z,8.73
2018-12-01T01:17:47.551Z,8.33
2018-12-01T01:20:17.561Z,8.00
2018-12-01T01:22:45.877Z,7.07
2018-12-01T01:25:13.642Z,7.47
2018-12-01T01:27:41.287Z,7.20
2018-12-01T01:30:13.764Z,7.20
2018-12-01T01:32:41.174Z,7.60
2018-12-01T01:35:08.574Z,7.30
2018-12-01T01:37:35.959Z,7.90
2018-12-01T01:40:03.461Z,7.37
2018-12-01T01:42:30.827Z,7.73
2018-12-01T01:44:58.236Z,6.70
2018-12-01T01:47:25.597Z,6.23
2018-12-01T01:49:53.075Z,6.50
2018-12-01T01:52:20.601Z,6.57
2018-12-01T01:54:48.130Z,6.53
2018-12-01T01:57:15.986Z,7.17
2018-12-01T01:59:43.857Z,8.17
2018-12-01T02:02:11.279Z,6.37
2018-12-01T02:04:38.689Z,7.07
2018-12-01T02:09:39.822Z,6.30
2018-12-01T02:12:07.193Z,6.90
2018-12-01T02:14:34.583Z,6.33
2018-12-01T02:17:01.948Z,6.83
2018-12-01T02:19:29.338Z,6.50
2018-12-01T02:21:56.704Z,6.87
2018-12-01T02:24:24.353Z,5.83
2018-12-01T02:26:51.709Z,6.37
2018-12-01T02:29:19.221Z,5.83
2018-12-01T02:31:46.803Z,6.00
2018-12-01T02:34:14.601Z,5.70
2018-12-01T02:36:42.063Z,5.90
2018-12-01T02:39:10.060Z,5.70
2018-12-01T02:41:37.618Z,5.73
2018-12-01T02:44:10.593Z,6.17
2018-12-01T02:46:43.781Z,5.27
2018-12-01T02:49:11.169Z,6.33
2018-12-01T02:51:38.542Z,5.77
2018-12-01T02:54:05.942Z,6.50
2018-12-01T02:56:33.333Z,5.67
2018-12-01T02:59:00.693Z,5.73
2018-12-01T03:01:28.148Z,5.23
2018-12-01T03:04:02.103Z,5.97
2018-12-01T03:06:29.497Z,4.93
2018-12-01T03:08:56.866Z,5.90
2018-12-01T03:11:24.346Z,5.27
2018-12-01T03:13:51.902Z,4.93
2018-12-01T03:16:19.528Z,5.40
2018-12-01T03:18:47.621Z,4.70
2018-12-01T03:21:15.457Z,4.50
2018-12-01T03:23:42.824Z,5.30
2018-12-01T03:26:10.259Z,4.93
2018-12-01T03:28:37.614Z,5.53
2018-12-01T03:31:05.068Z,5.00
2018-12-01T03:33:32.426Z,5.80
2018-12-01T03:35:59.809Z,5.00
2018-12-01T03:38:28.044Z,5.20
2018-12-01T03:40:55.530Z,4.90
2018-12-01T03:43:22.907Z,5.37
2018-12-01T03:45:50.353Z,5.20
2018-12-01T03:48:18.072Z,5.17
2018-12-01T03:50:45.791Z,4.10
2018-12-01T03:53:13.183Z,4.47
2018-12-01T03:55:40.559Z,5.27
2018-12-01T03:58:08.733Z,4.93
2018-12-01T04:00:36.804Z,6.07
2018-12-01T04:03:06.615Z,4.10
2018-12-01T04:05:34.029Z,4.73
2018-12-01T04:08:01.426Z,4.33
2018-12-01T04:10:28.886Z,4.83
2018-12-01T04:12:56.429Z,4.37
2018-12-01T04:15:24.346Z,4.60
2018-12-01T04:17:52.002Z,4.60
2018-12-01T04:20:19.428Z,4.23
2018-12-01T04:22:47.145Z,4.30
2018-12-01T04:25:14.573Z,4.40
2018-12-01T04:27:41.980Z,4.10
2018-12-01T04:30:13.957Z,4.40
2018-12-01T04:32:41.372Z,3.77
2018-12-01T04:35:09.247Z,4.10
2018-12-01T04:37:36.667Z,3.73
2018-12-01T04:40:04.546Z,5.40
2018-12-01T04:42:31.938Z,3.97
2018-12-01T04:44:59.307Z,3.50
2018-12-01T04:47:26.907Z,4.37
2018-12-01T04:49:54.294Z,4.40
2018-12-01T04:52:21.772Z,4.10
2018-12-01T04:54:50.262Z,3.80
2018-12-01T04:57:18.002Z,3.90
2018-12-01T04:59:45.598Z,3.77
2018-12-01T05:02:13.064Z,3.67
2018-12-01T05:04:40.429Z,3.70
2018-12-01T05:07:07.857Z,3.87
2018-12-01T05:09:35.209Z,3.90
2018-12-01T05:12:02.582Z,3.17
2018-12-01T05:14:29.944Z,3.97
2018-12-01T05:16:57.501Z,3.73
2018-12-01T05:19:24.854Z,3.93
2018-12-01T05:21:52.414Z,3.60
2018-12-01T05:24:19.869Z,3.80
2018-12-01T05:26:47.584Z,3.43
2018-12-01T05:29:14.962Z,4.40
2018-12-01T05:31:42.378Z,4.37
2018-12-01T05:34:09.733Z,4.17
2018-12-01T05:36:37.161Z,3.33
2018-12-01T05:39:06.989Z,3.93
2018-12-01T05:41:34.430Z,3.80
2018-12-01T05:44:01.796Z,3.87
2018-12-01T05:46:29.198Z,3.90
2018-12-01T05:48:56.622Z,3.37
2018-12-01T05:51:24.130Z,3.37
2018-12-01T05:53:51.604Z,3.53
2018-12-01T05:56:22.166Z,3.70
2018-12-01T05:58:49.626Z,3.20
2018-12-01T06:01:18.706Z,3.47
2018-12-01T06:03:46.379Z,3.33
2018-12-01T06:06:13.753Z,3.43
2018-12-01T06:08:41.153Z,3.37
2018-12-01T06:11:08.518Z,3.30
2018-12-01T06:13:35.907Z,4.00
2018-12-01T06:16:03.346Z,3.23
2018-12-01T06:18:30.745Z,3.23
2018-12-01T06:20:58.250Z,3.17
2018-12-01T06:23:25.653Z,3.83
2018-12-01T06:25:53.157Z,3.00
2018-12-01T06:28:20.694Z,2.83
2018-12-01T06:30:48.515Z,2.77
2018-12-01T06:33:15.994Z,3.27
2018-12-01T06:35:43.354Z,2.53
2018-12-01T06:38:10.747Z,2.90
2018-12-01T06:40:38.114Z,2.83
2018-12-01T06:43:05.796Z,2.87
2018-12-01T06:45:33.158Z,3.10
2018-12-01T06:48:00.601Z,2.20
2018-12-01T06:50:28.073Z,2.90
2018-12-01T06:52:55.505Z,2.80
2018-12-01T06:55:23.328Z,3.70
2018-12-01T06:57:51.198Z,3.27
2018-12-01T07:00:19.508Z,2.73
2018-12-01T07:02:47.408Z,3.00
2018-12-01T07:05:15.228Z,2.70
2018-12-01T07:07:42.639Z,2.87
2018-12-01T07:10:10.558Z,2.93
2018-12-01T07:12:37.983Z,3.00
2018-12-01T07:15:06.697Z,3.90
2018-12-01T07:17:34.090Z,2.67
2018-12-01T07:20:01.481Z,2.70
2018-12-01T07:22:29.098Z,2.80
2018-12-01T07:24:56.453Z,3.00
2018-12-01T07:27:24.006Z,2.80
2018-12-01T07:29:51.497Z,2.50
2018-12-01T07:32:19.354Z,2.83
2018-12-01T07:34:46.729Z,2.13
2018-12-01T07:37:14.126Z,2.80
2018-12-01T07:39:41.478Z,1.97
2018-12-01T07:42:08.826Z,3.27
2018-12-01T07:44:36.252Z,3.40
2018-12-01T07:47:03.636Z,3.17
2018-12-01T07:49:31.015Z,2.57
2018-12-01T07:51:58.537Z,2.70
2018-12-01T07:54:25.996Z,2.47
2018-12-01T07:56:53.457Z,2.60
2018-12-01T07:59:21.173Z,2.63
2018-12-01T08:01:48.942Z,2.70
2018-12-01T08:04:16.329Z,2.90
2018-12-01T08:06:43.701Z,3.00
2018-12-01T08:09:11.081Z,2.57
2018-12-01T08:11:38.430Z,2.90
2018-12-01T08:14:05.878Z,2.90
2018-12-01T08:16:33.238Z,3.00
2018-12-01T08:19:00.623Z,3.60
2018-12-01T08:21:27.978Z,2.60
2018-12-01T08:23:55.576Z,4.23
2018-12-01T08:26:23.086Z,3.40
2018-12-01T08:28:50.719Z,3.67
2018-12-01T08:31:18.126Z,3.43
2018-12-01T08:33:45.561Z,3.30
2018-12-01T08:36:12.983Z,3.33
2018-12-01T08:38:40.389Z,4.97
2018-12-01T08:41:07.794Z,4.67
2018-12-01T08:43:35.190Z,4.13
2018-12-01T08:46:02.598Z,5.23
2018-12-01T08:48:30.229Z,5.63
2018-12-01T08:50:58.082Z,5.37
2018-12-01T08:53:25.712Z,4.47
2018-12-01T08:55:53.344Z,4.83
2018-12-01T08:58:21.318Z,4.33
2018-12-01T09:00:48.948Z,4.07
2018-12-01T09:03:18.131Z,5.30
2018-12-01T09:05:45.558Z,4.27
2018-12-01T09:08:13.046Z,4.30
2018-12-01T09:10:40.432Z,5.20
2018-12-01T09:13:07.866Z,4.10
2018-12-01T09:15:36.970Z,6.03
2018-12-01T09:18:03.130Z,4.40
2018-12-01T09:20:30.641Z,4.20
2018-12-01T09:22:58.092Z,4.73
2018-12-01T09:25:25.624Z,4.40
2018-12-01T09:27:53.321Z,4.13
2018-12-01T09:30:22.619Z,3.20
2018-12-01T09:32:50.639Z,4.43
2018-12-01T09:35:18.085Z,3.47
2018-12-01T09:37:45.493Z,3.20
2018-12-01T09:40:13.580Z,4.77
2018-12-01T09:42:41.046Z,3.77
2018-12-01T09:45:09.254Z,3.50
2018-12-01T09:47:36.698Z,4.00
2018-12-01T09:50:04.668Z,3.65
2018-12-01T09:52:32.045Z,3.00
2018-12-01T09:54:59.460Z,3.00
2018-12-01T09:57:27.014Z,3.60
2018-12-01T09:59:54.515Z,3.13
2018-12-01T10:02:22.420Z,4.10
2018-12-01T10:04:49.933Z,2.80
2018-12-01T10:07:17.341Z,3.10
2018-12-01T10:09:44.897Z,2.90
2018-12-01T10:12:12.281Z,3.60
2018-12-01T10:14:39.699Z,3.37
2018-12-01T10:17:07.129Z,3.83
2018-12-01T10:19:34.527Z,3.67
2018-12-01T10:22:02.027Z,3.97
2018-12-01T10:24:31.273Z,2.97
2018-12-01T10:26:58.686Z,4.50
2018-12-01T10:29:26.126Z,3.27
2018-12-01T10:31:53.988Z,3.77
2018-12-01T10:34:21.874Z,3.13
2018-12-01T10:36:49.614Z,2.20
2018-12-01T10:39:17.151Z,2.80
2018-12-01T10:41:44.752Z,2.57
2018-12-01T10:44:12.353Z,3.13
2018-12-01T10:46:39.935Z,3.60
2018-12-01T10:49:07.755Z,2.30
2018-12-01T10:51:35.442Z,3.13
2018-12-01T10:54:02.959Z,3.93
2018-12-01T10:56:30.685Z,3.10
2018-12-01T10:58:58.280Z,3.40
2018-12-01T11:01:28.061Z,3.70
2018-12-01T11:03:56.125Z,4.10
2018-12-01T11:06:24.164Z,2.87
2018-12-01T11:08:52.219Z,3.50
2018-12-01T11:11:19.764Z,2.60
2018-12-01T11:13:47.277Z,3.57
2018-12-01T11:16:14.825Z,2.90
2018-12-01T11:18:42.501Z,2.90
2018-12-01T11:21:09.968Z,3.10
2018-12-01T11:23:37.455Z,3.40
2018-12-01T11:26:05.134Z,3.17
2018-12-01T11:28:32.770Z,4.43
2018-12-01T11:31:00.174Z,2.83
2018-12-01T11:33:27.807Z,3.67
2018-12-01T11:35:55.475Z,2.63
2018-12-01T11:38:23.439Z,3.30
2018-12-01T11:40:51.590Z,3.90
2018-12-01T11:43:19.032Z,4.13
2018-12-01T11:45:47.584Z,3.37
2018-12-01T11:48:15.242Z,3.00
2018-12-01T11:50:42.730Z,3.50
2018-12-01T11:53:10.100Z,3.60
2018-12-01T11:55:37.554Z,3.60
2018-12-01T11:58:05.070Z,2.83
2018-12-01T12:00:32.608Z,4.63
2018-12-01T12:03:00.158Z,2.77
2018-12-01T12:05:27.713Z,2.80
2018-12-01T12:08:00.713Z,3.50
2018-12-01T12:10:28.598Z,3.40
2018-12-01T12:12:56.249Z,3.20
2018-12-01T12:15:24.415Z,2.70
2018-12-01T12:17:52.775Z,2.90
2018-12-01T12:20:20.216Z,3.13
2018-12-01T12:22:47.651Z,4.03
2018-12-01T12:25:15.450Z,3.17
2018-12-01T12:27:42.843Z,4.20
2018-12-01T12:30:11.071Z,2.93
2018-12-01T12:32:39.024Z,2.60
2018-12-01T12:35:06.680Z,2.63
2018-12-01T12:37:34.242Z,2.70
2018-12-01T12:40:01.641Z,4.17
2018-12-01T12:42:29.177Z,4.73
2018-12-01T12:44:56.923Z,4.03
2018-12-01T12:47:24.734Z,3.03
2018-12-01T12:49:52.281Z,4.03
2018-12-01T12:52:19.722Z,4.47
2018-12-01T12:54:47.101Z,4.40
2018-12-01T12:57:14.514Z,7.00
2018-12-01T12:59:41.905Z,5.83
2018-12-01T13:02:09.310Z,4.40
2018-12-01T13:04:36.688Z,5.30
2018-12-01T13:07:04.290Z,6.20
2018-12-01T13:09:31.680Z,5.00
2018-12-01T13:11:59.225Z,5.90
2018-12-01T13:14:26.953Z,4.37
2018-12-01T13:16:54.885Z,5.83
2018-12-01T13:19:22.311Z,5.00
2018-12-01T13:21:49.697Z,5.73
2018-12-01T13:24:17.097Z,5.13
2018-12-01T13:26:44.534Z,4.60
2018-12-01T13:29:11.953Z,5.53
2018-12-01T13:31:39.443Z,5.87
2018-12-01T13:34:06.819Z,4.10
2018-12-01T13:36:34.334Z,4.23
2018-12-01T13:39:01.744Z,4.27
2018-12-01T13:41:29.255Z,4.17
2018-12-01T13:43:57.066Z,4.90
2018-12-01T13:46:24.938Z,4.13
2018-12-01T13:48:52.356Z,5.10
2018-12-01T13:51:19.758Z,3.87
2018-12-01T13:53:52.041Z,4.00
2018-12-01T13:56:20.969Z,4.53
2018-12-01T13:58:47.259Z,4.50
2018-12-01T14:01:14.683Z,3.83
2018-12-01T14:03:42.045Z,4.30
2018-12-01T14:06:09.735Z,4.37
2018-12-01T14:08:37.134Z,3.47
2018-12-01T14:11:05.012Z,4.07
2018-12-01T14:13:32.423Z,3.50
2018-12-01T14:15:59.846Z,4.70
2018-12-01T14:18:27.610Z,3.10
2018-12-01T14:20:55.581Z,3.07
2018-12-01T14:23:22.992Z,2.80
2018-12-01T14:25:50.403Z,2.83
2018-12-01T14:28:17.816Z,3.50
2018-12-01T14:30:45.256Z,3.03
2018-12-01T14:33:12.953Z,3.10
2018-12-01T14:35:40.771Z,2.43
2018-12-01T14:38:11.684Z,3.90
2018-12-01T14:40:39.495Z,2.97
2018-12-01T14:43:06.921Z,3.57
2018-12-01T14:45:34.397Z,2.90
2018-12-01T14:48:02.076Z,2.93
2018-12-01T14:50:30.494Z,3.33
2018-12-01T14:52:58.163Z,2.80
2018-12-01T14:55:25.838Z,2.90
2018-12-01T14:57:53.267Z,3.50
2018-12-01T15:00:21.311Z,3.53
2018-12-01T15:02:49.085Z,3.23
2018-12-01T15:05:16.446Z,1.90
2018-12-01T15:07:43.967Z,3.10
2018-12-01T15:10:17.558Z,2.60
2018-12-01T15:12:44.942Z,4.53
2018-12-01T15:15:12.890Z,2.47
2018-12-01T15:17:40.358Z,4.43
2018-12-01T15:20:11.070Z,2.93
2018-12-01T15:22:38.673Z,4.30
2018-12-01T15:25:07.504Z,4.80
2018-12-01T15:27:35.357Z,3.60
2018-12-01T15:30:03.098Z,3.50
2018-12-01T15:32:30.678Z,2.50
2018-12-01T15:34:58.284Z,3.90
2018-12-01T15:37:25.905Z,3.77
2018-12-01T15:39:53.432Z,3.00
2018-12-01T15:42:20.806Z,3.30
2018-12-01T15:44:48.208Z,4.20
2018-12-01T15:47:15.572Z,3.63
2018-12-01T15:49:42.986Z,3.07
2018-12-01T15:52:10.373Z,3.73
2018-12-01T15:54:37.768Z,3.23
2018-12-01T15:57:05.342Z,2.83
2018-12-01T15:59:33.107Z,3.20
2018-12-01T16:02:00.669Z,4.20
2018-12-01T16:04:29.781Z,3.30
2018-12-01T16:06:57.857Z,3.42
2018-12-01T16:09:25.407Z,3.10
2018-12-01T16:11:53.651Z,3.97
2018-12-01T16:14:22.018Z,3.90
2018-12-01T16:16:50.364Z,4.57
2018-12-01T16:19:18.361Z,3.03
2018-12-01T16:21:46.993Z,3.10
2018-12-01T16:24:14.987Z,4.33
2018-12-01T16:26:43.283Z,3.70
2018-12-01T16:29:11.817Z,3.67
2018-12-01T16:31:40.254Z,4.60
2018-12-01T16:34:08.720Z,5.47
2018-12-01T16:36:36.951Z,4.60
2018-12-01T16:39:07.302Z,5.80
2018-12-01T16:41:36.194Z,5.20
2018-12-01T16:44:04.620Z,4.50
2018-12-01T16:46:33.083Z,5.57
2018-12-01T16:49:01.759Z,4.37
2018-12-01T16:51:30.166Z,4.80
2018-12-01T16:53:58.770Z,5.97
2018-12-01T16:56:27.115Z,5.00
2018-12-01T16:58:55.402Z,6.47
2018-12-01T17:01:23.656Z,5.77
2018-12-01T17:03:51.952Z,5.67
2018-12-01T17:06:20.286Z,6.27
2018-12-01T17:08:48.869Z,5.47
2018-12-01T17:11:17.303Z,6.10
2018-12-01T17:13:45.541Z,5.20
2018-12-01T17:16:13.665Z,5.60
2018-12-01T17:18:41.969Z,5.20
2018-12-01T17:21:10.364Z,5.50
2018-12-01T17:23:38.606Z,4.60
2018-12-01T17:26:06.935Z,4.67
2018-12-01T17:28:35.022Z,5.57
2018-12-01T17:31:03.579Z,4.93
2018-12-01T17:33:32.007Z,5.20
2018-12-01T17:36:00.685Z,5.60
2018-12-01T17:38:29.260Z,4.80
2018-12-01T17:41:02.336Z,7.03
2018-12-01T17:43:32.357Z,4.13
2018-12-01T17:46:00.896Z,5.33
2018-12-01T17:48:29.545Z,4.80
2018-12-01T17:50:57.978Z,6.97
2018-12-01T17:53:26.277Z,4.93
2018-12-01T17:55:54.573Z,4.50
2018-12-01T17:58:23.182Z,4.40
2018-12-01T18:00:51.391Z,4.70
2018-12-01T18:03:19.545Z,4.90
2018-12-01T18:05:48.622Z,5.00
2018-12-01T18:08:17.713Z,4.57
2018-12-01T18:10:47.078Z,3.97
2018-12-01T18:13:15.212Z,3.43
2018-12-01T18:15:43.420Z,3.83
2018-12-01T18:18:11.656Z,5.10
2018-12-01T18:20:39.976Z,4.83
2018-12-01T18:23:09.602Z,4.77
2018-12-01T18:25:38.731Z,4.27
2018-12-01T18:28:07.442Z,4.80
2018-12-01T18:30:37.081Z,3.60
2018-12-01T18:33:10.012Z,3.83
2018-12-01T18:35:38.357Z,3.70
2018-12-01T18:38:07.368Z,3.30
2018-12-01T18:40:35.759Z,3.90
2018-12-01T18:43:04.176Z,3.57
2018-12-01T18:45:32.447Z,3.13
2018-12-01T18:48:01.050Z,3.80
2018-12-01T18:50:29.767Z,4.37
2018-12-01T18:53:00.841Z,4.27
2018-12-01T18:55:29.988Z,3.80
2018-12-01T18:57:58.565Z,4.17
2018-12-01T19:00:27.955Z,3.60
2018-12-01T19:02:56.125Z,3.93
2018-12-01T19:05:24.372Z,3.83
2018-12-01T19:07:52.642Z,3.53
2018-12-01T19:10:20.809Z,3.60
2018-12-01T19:12:48.997Z,5.17
2018-12-01T19:15:17.620Z,2.97
2018-12-01T19:17:46.525Z,3.37
2018-12-01T19:20:15.106Z,3.40
2018-12-01T19:22:43.424Z,3.80
2018-12-01T19:25:12.155Z,3.57
2018-12-01T19:27:40.436Z,3.63
2018-12-01T19:30:09.813Z,3.40
2018-12-01T19:32:38.007Z,3.03
2018-12-01T19:35:07.623Z,4.67
2018-12-01T19:37:35.840Z,3.17
2018-12-01T19:40:04.390Z,3.43
2018-12-01T19:42:32.943Z,2.53
2018-12-01T19:45:01.806Z,2.90
2018-12-01T19:47:29.879Z,3.03
2018-12-01T19:49:58.609Z,2.83
2018-12-01T19:52:26.626Z,3.50
2018-12-01T19:54:54.831Z,3.40
2018-12-01T19:57:23.156Z,3.13
2018-12-01T19:59:51.249Z,4.13
2018-12-01T20:02:19.951Z,3.80
2018-12-01T20:04:48.165Z,2.93
2018-12-01T20:07:16.405Z,3.08
2018-12-01T20:09:44.595Z,3.70
2018-12-01T20:12:12.807Z,4.37
2018-12-01T20:14:40.417Z,4.60
2018-12-01T20:17:08.608Z,3.50
2018-12-01T20:19:36.106Z,3.50
2018-12-01T20:22:03.819Z,3.97
2018-12-01T20:24:31.686Z,3.67
2018-12-01T20:26:59.255Z,3.90
2018-12-01T20:29:26.619Z,3.67
2018-12-01T20:31:54.043Z,3.40
2018-12-01T20:34:21.385Z,3.27
2018-12-01T20:36:53.103Z,3.70
2018-12-01T20:39:21.530Z,4.13
2018-12-01T20:41:48.932Z,3.30
2018-12-01T20:44:16.327Z,4.23
2018-12-01T20:46:43.722Z,4.67
2018-12-01T20:49:11.323Z,3.70
2018-12-01T20:51:38.750Z,12.33
2018-12-01T20:54:07.482Z,16.67
2018-12-01T20:56:35.520Z,20.43
2018-12-01T20:59:03.202Z,24.93
2018-12-01T21:01:30.984Z,23.73
2018-12-01T21:03:58.576Z,24.90
2018-12-01T21:06:26.061Z,23.67
2018-12-01T21:08:53.424Z,23.50
2018-12-01T21:11:20.990Z,21.67
2018-12-01T21:13:48.502Z,23.07
2018-12-01T21:16:15.926Z,13.70
2018-12-01T21:18:43.292Z,20.00
2018-12-01T21:21:10.778Z,20.20
2018-12-01T21:23:38.256Z,17.50
2018-12-01T21:26:05.726Z,19.73
2018-12-01T21:28:33.277Z,15.97
2018-12-01T21:31:02.571Z,16.30
2018-12-01T21:33:31.073Z,14.80
2018-12-01T21:35:58.474Z,15.83
2018-12-01T21:38:25.850Z,15.00
2018-12-01T21:40:53.319Z,14.20
2018-12-01T21:43:20.761Z,14.37
2018-12-01T21:45:48.171Z,12.90
2018-12-01T21:48:15.558Z,12.47
2018-12-01T21:50:43.874Z,14.03
2018-12-01T21:53:15.029Z,10.67
2018-12-01T21:55:42.445Z,12.57
2018-12-01T21:58:09.829Z,11.40
2018-12-01T22:00:38.099Z,12.77
2018-12-01T22:03:06.589Z,12.50
2018-12-01T22:05:35.471Z,12.73
2018-12-01T22:08:03.143Z,11.07
2018-12-01T22:10:30.698Z,12.57
2018-12-01T22:12:58.285Z,9.60
2018-12-01T22:15:25.649Z,8.93
2018-12-01T22:17:53.039Z,9.80
2018-12-01T22:20:21.858Z,9.73
2018-12-01T22:22:49.445Z,9.20
2018-12-01T22:25:16.833Z,9.63
2018-12-01T22:27:44.242Z,9.03
2018-12-01T22:30:14.054Z,10.93
2018-12-01T22:32:41.614Z,10.03
2018-12-01T22:35:10.010Z,9.47
2018-12-01T22:37:37.622Z,8.97
2018-12-01T22:40:08.278Z,8.40
2018-12-01T22:42:35.871Z,8.83
2018-12-01T22:45:03.513Z,8.60
2018-12-01T22:47:31.170Z,7.07
2018-12-01T22:49:58.569Z,8.43
2018-12-01T22:52:25.970Z,7.50
2018-12-01T22:54:53.397Z,7.67
2018-12-01T22:57:20.813Z,7.90
2018-12-01T22:59:48.183Z,9.43
2018-12-01T23:02:15.585Z,7.20
2018-12-01T23:04:43.031Z,8.57
2018-12-01T23:07:10.433Z,7.50
2018-12-01T23:09:37.987Z,7.50
2018-12-01T23:12:05.714Z,7.00
2018-12-01T23:14:33.394Z,7.97
2018-12-01T23:17:00.832Z,8.50
2018-12-01T23:19:28.261Z,7.17
2018-12-01T23:21:55.655Z,7.13
2018-12-01T23:24:23.068Z,8.13
2018-12-01T23:26:50.469Z,7.33
2018-12-01T23:29:17.826Z,7.10
2018-12-01T23:31:45.253Z,6.80
2018-12-01T23:34:12.693Z,7.00
2018-12-01T23:36:40.187Z,8.10
2018-12-01T23:39:07.661Z,6.37
2018-12-01T23:41:35.302Z,7.10
2018-12-01T23:44:02.972Z,5.80
2018-12-01T23:46:30.403Z,7.57
2018-12-01T23:48:57.797Z,6.50
2018-12-01T23:51:25.153Z,5.40
2018-12-01T23:53:52.595Z,5.73
2018-12-01T23:56:19.940Z,6.30
2018-12-01T23:58:47.333Z,5.87
